Kurunegala, Sri Lanka

11:07 PM IST on July 29, 2014 (GMT +0530)
Bandaranaike International (VCBI) Elev 26 ft | 7.18 °N, 79.88 °E | Change Station

Current weather conditions updated 27 minutes ago

Partly Cloudy
Partly Cloudy
82 °F
Feels Like 90 °F
N
10
Wind Variable Wind from WSW

Tomorrow is forecast to be nearly the same temperature as today. A few morning showers.

Today
High -- | Low -- °F
--% Chance of Precip.
Yesterday
High -- | Low -- °F
Precip. -- in
6:01 AM 6:28 PM
Waxing Crescent, 7% visible
Pressure 29.86 in
Visibility 6.2 miles
Clouds Few 1600 ft
Heat Index 90 °F
Dew Point 75 °F
Humidity 79%
Rainfall 0.00 in
Snow Depth Not available.
UV 0 out of 12
Pollen Not available.
Air Quality Not available.
Flu Activity Not available.
METAR VCBI 291710Z 24009KT 9999 FEW016 28/24 Q1011 NOSIG

More Conditions Fewer Conditions

Pressure 29.86 in
Visibility 6.2 miles
Clouds Few 1600 ft
Heat Index 90 °F
Dew Point 75 °F
Humidity 79%
Rainfall 0.00 in
Snow Depth Not available.
UV 0 out of 12
Pollen Not available.
Air Quality Not available.
Flu Activity Not available.
METAR VCBI 291710Z 24009KT 9999 FEW016 28/24 Q1011 NOSIG

More Conditions Fewer Conditions

10-Day Weather Forecast

Almanac

Astronomy

Jul. 29, 2014 Rise Set
Actual Time 6:01 AM IST 6:28 PM IST
Civil Twilight 5:39 AM IST 6:50 PM IST
Nautical Twilight 5:13 AM IST 7:16 PM IST
Astronomical Twilight 4:47 AM IST 7:42 PM IST
Moon 7:37 AM IST 8:06 PM IST
Length of Visible Light 13h 11m
Length of Day
12h 27m
Tomorrow will be 0m 18s shorter.
Waxing Crescent, 7% of the Moon is Illuminated
Today
Waxing Crescent
Aug 3
First Quarter
Aug 10
Full
Aug 17
Last Quarter
Aug 25
New

Today's Extremes

Country Highs Country Lows

Community

WunderPhotos

Upload Photos

1,738,797 photos uploaded!

Nearby

Snow Depth

Not available.

Earthquake Activity

City Distance Mag. Time & Date
No recent earthquake activity has been reported nearby.
Minimum magnitude displayed is 2.5.

Coastal Water Temperatures

Place Temperature
No Stations Reporting

Nearby Weather Stations

There are no personal weather stations in this area.